Аэропорт: Габала. Габала

ICAO: UBBQ

METAR:
2019/01/21 23:00
UBBQ 212300Z 27005KT 0100 R16/0100 FZFG VV001 M02/M02 Q1017 R16/////// NOSIG RMK MT OBSC
METAR:
Информация по данной станции не доступна